sensor_id;sensor_type;location;lat;lon;timestamp;P1;durP1;ratioP1;P2;durP2;ratioP2
64094;SDS011;50353;51.420;5.682;2023-02-28T00:00:06;10.98;;;5.25;;
64094;SDS011;50353;51.420;5.682;2023-02-28T00:02:35;13.38;;;5.53;;
64094;SDS011;50353;51.420;5.682;2023-02-28T00:05:10;13.18;;;6.03;;
64094;SDS011;50353;51.420;5.682;2023-02-28T00:07:38;9.25;;;5.60;;
64094;SDS011;50353;51.420;5.682;2023-02-28T00:10:07;13.02;;;5.82;;
64094;SDS011;50353;51.420;5.682;2023-02-28T00:12:34;12.32;;;6.43;;
64094;SDS011;50353;51.420;5.682;2023-02-28T00:15:00;9.95;;;5.68;;
64094;SDS011;50353;51.420;5.682;2023-02-28T00:17:26;10.85;;;6.13;;
64094;SDS011;50353;51.420;5.682;2023-02-28T00:19:51;12.00;;;6.13;;
64094;SDS011;50353;51.420;5.682;2023-02-28T00:22:17;11.05;;;6.35;;
64094;SDS011;50353;51.420;5.682;2023-02-28T00:27:10;11.25;;;6.05;;
64094;SDS011;50353;51.420;5.682;2023-02-28T00:29:36;11.50;;;6.47;;
64094;SDS011;50353;51.420;5.682;2023-02-28T00:32:01;14.57;;;6.95;;
64094;SDS011;50353;51.420;5.682;2023-02-28T00:34:27;12.93;;;6.90;;
64094;SDS011;50353;51.420;5.682;2023-02-28T00:36:52;13.52;;;6.13;;
64094;SDS011;50353;51.420;5.682;2023-02-28T00:39:17;10.60;;;6.75;;
64094;SDS011;50353;51.420;5.682;2023-02-28T00:41:43;12.27;;;6.55;;
64094;SDS011;50353;51.420;5.682;2023-02-28T00:44:08;9.90;;;6.25;;
64094;SDS011;50353;51.420;5.682;2023-02-28T00:46:34;11.18;;;5.95;;
64094;SDS011;50353;51.420;5.682;2023-02-28T00:48:59;12.05;;;6.30;;
64094;SDS011;50353;51.420;5.682;2023-02-28T00:51:24;10.57;;;6.32;;
64094;SDS011;50353;51.420;5.682;2023-02-28T00:53:50;9.88;;;5.40;;
64094;SDS011;50353;51.420;5.682;2023-02-28T00:56:15;12.32;;;5.78;;
64094;SDS011;50353;51.420;5.682;2023-02-28T00:58:40;11.48;;;6.15;;
64094;SDS011;50353;51.420;5.682;2023-02-28T01:01:06;12.52;;;6.28;;
64094;SDS011;50353;51.420;5.682;2023-02-28T01:03:31;11.27;;;6.15;;
64094;SDS011;50353;51.420;5.682;2023-02-28T01:05:56;12.68;;;6.05;;
64094;SDS011;50353;51.420;5.682;2023-02-28T01:08:22;10.50;;;6.00;;
64094;SDS011;50353;51.420;5.682;2023-02-28T01:10:48;9.63;;;6.07;;
64094;SDS011;50353;51.420;5.682;2023-02-28T01:13:13;11.20;;;6.35;;
64094;SDS011;50353;51.420;5.682;2023-02-28T01:15:40;14.32;;;6.70;;
64094;SDS011;50353;51.420;5.682;2023-02-28T01:18:08;11.75;;;6.60;;
64094;SDS011;50353;51.420;5.682;2023-02-28T01:20:35;10.60;;;6.57;;
64094;SDS011;50353;51.420;5.682;2023-02-28T01:23:03;11.07;;;6.43;;
64094;SDS011;50353;51.420;5.682;2023-02-28T01:25:29;10.05;;;5.70;;
64094;SDS011;50353;51.420;5.682;2023-02-28T01:27:54;14.07;;;6.97;;
64094;SDS011;50353;51.420;5.682;2023-02-28T01:30:20;10.65;;;6.30;;
64094;SDS011;50353;51.420;5.682;2023-02-28T01:32:45;23.83;;;6.88;;
64094;SDS011;50353;51.420;5.682;2023-02-28T01:35:10;11.65;;;6.57;;
64094;SDS011;50353;51.420;5.682;2023-02-28T01:37:36;13.00;;;6.88;;
64094;SDS011;50353;51.420;5.682;2023-02-28T01:40:01;14.32;;;6.70;;
64094;SDS011;50353;51.420;5.682;2023-02-28T01:42:27;12.02;;;7.18;;
64094;SDS011;50353;51.420;5.682;2023-02-28T01:47:40;13.88;;;6.90;;
64094;SDS011;50353;51.420;5.682;2023-02-28T01:50:09;11.98;;;6.95;;
64094;SDS011;50353;51.420;5.682;2023-02-28T01:52:42;10.35;;;6.20;;
64094;SDS011;50353;51.420;5.682;2023-02-28T01:55:10;12.63;;;6.55;;
64094;SDS011;50353;51.420;5.682;2023-02-28T01:57:38;14.75;;;6.63;;
64094;SDS011;50353;51.420;5.682;2023-02-28T02:00:08;17.27;;;7.22;;
64094;SDS011;50353;51.420;5.682;2023-02-28T02:02:42;12.48;;;7.13;;
64094;SDS011;50353;51.420;5.682;2023-02-28T02:05:10;10.27;;;6.90;;
64094;SDS011;50353;51.420;5.682;2023-02-28T02:07:41;20.05;;;7.45;;
64094;SDS011;50353;51.420;5.682;2023-02-28T02:10:13;15.40;;;7.05;;
64094;SDS011;50353;51.420;5.682;2023-02-28T02:12:48;17.50;;;7.63;;
64094;SDS011;50353;51.420;5.682;2023-02-28T02:15:24;12.63;;;6.85;;
64094;SDS011;50353;51.420;5.682;2023-02-28T02:17:56;13.05;;;7.78;;
64094;SDS011;50353;51.420;5.682;2023-02-28T02:23:31;14.35;;;7.38;;
64094;SDS011;50353;51.420;5.682;2023-02-28T02:26:31;16.88;;;7.05;;
64094;SDS011;50353;51.420;5.682;2023-02-28T02:29:23;12.98;;;6.80;;
64094;SDS011;50353;51.420;5.682;2023-02-28T02:32:14;12.63;;;6.97;;
64094;SDS011;50353;51.420;5.682;2023-02-28T02:34:56;13.00;;;7.95;;
64094;SDS011;50353;51.420;5.682;2023-02-28T02:37:25;17.45;;;7.97;;
64094;SDS011;50353;51.420;5.682;2023-02-28T02:39:56;14.05;;;5.85;;
64094;SDS011;50353;51.420;5.682;2023-02-28T02:42:39;13.88;;;6.97;;
64094;SDS011;50353;51.420;5.682;2023-02-28T02:45:10;13.68;;;6.88;;
64094;SDS011;50353;51.420;5.682;2023-02-28T02:47:39;14.35;;;7.18;;
64094;SDS011;50353;51.420;5.682;2023-02-28T02:50:08;16.15;;;7.45;;
64094;SDS011;50353;51.420;5.682;2023-02-28T02:52:42;13.95;;;7.10;;
64094;SDS011;50353;51.420;5.682;2023-02-28T02:55:13;12.77;;;7.57;;
64094;SDS011;50353;51.420;5.682;2023-02-28T03:00:17;12.95;;;6.90;;
64094;SDS011;50353;51.420;5.682;2023-02-28T03:02:46;12.85;;;6.40;;
64094;SDS011;50353;51.420;5.682;2023-02-28T03:05:18;18.73;;;7.30;;
64094;SDS011;50353;51.420;5.682;2023-02-28T03:07:48;15.38;;;7.63;;
64094;SDS011;50353;51.420;5.682;2023-02-28T03:10:30;14.65;;;7.25;;
64094;SDS011;50353;51.420;5.682;2023-02-28T03:21:03;12.40;;;6.45;;
64094;SDS011;50353;51.420;5.682;2023-02-28T03:24:03;15.90;;;6.78;;
64094;SDS011;50353;51.420;5.682;2023-02-28T03:26:29;13.95;;;6.72;;
64094;SDS011;50353;51.420;5.682;2023-02-28T03:29:07;11.85;;;6.88;;
64094;SDS011;50353;51.420;5.682;2023-02-28T03:37:07;13.80;;;6.80;;
64094;SDS011;50353;51.420;5.682;2023-02-28T03:39:40;11.95;;;7.00;;
64094;SDS011;50353;51.420;5.682;2023-02-28T03:42:11;11.75;;;6.35;;
64094;SDS011;50353;51.420;5.682;2023-02-28T03:44:44;14.45;;;6.65;;
64094;SDS011;50353;51.420;5.682;2023-02-28T03:49:50;12.45;;;6.72;;
64094;SDS011;50353;51.420;5.682;2023-02-28T03:52:22;13.45;;;6.85;;
64094;SDS011;50353;51.420;5.682;2023-02-28T03:54:51;11.68;;;6.72;;
64094;SDS011;50353;51.420;5.682;2023-02-28T03:57:23;12.23;;;6.07;;
64094;SDS011;50353;51.420;5.682;2023-02-28T04:00:00;11.50;;;6.20;;
64094;SDS011;50353;51.420;5.682;2023-02-28T04:02:31;12.85;;;6.30;;
64094;SDS011;50353;51.420;5.682;2023-02-28T04:04:57;11.93;;;6.32;;
64094;SDS011;50353;51.420;5.682;2023-02-28T04:07:22;16.35;;;7.00;;
64094;SDS011;50353;51.420;5.682;2023-02-28T04:09:47;9.80;;;5.90;;
64094;SDS011;50353;51.420;5.682;2023-02-28T04:12:13;10.52;;;6.55;;
64094;SDS011;50353;51.420;5.682;2023-02-28T04:14:38;11.98;;;6.53;;
64094;SDS011;50353;51.420;5.682;2023-02-28T04:17:03;12.77;;;6.78;;
64094;SDS011;50353;51.420;5.682;2023-02-28T04:19:29;11.18;;;5.90;;
64094;SDS011;50353;51.420;5.682;2023-02-28T04:21:54;10.85;;;6.40;;
64094;SDS011;50353;51.420;5.682;2023-02-28T04:24:20;10.43;;;6.18;;
64094;SDS011;50353;51.420;5.682;2023-02-28T04:26:49;10.55;;;6.38;;
64094;SDS011;50353;51.420;5.682;2023-02-28T04:29:20;12.05;;;6.35;;
64094;SDS011;50353;51.420;5.682;2023-02-28T04:31:47;13.05;;;6.18;;
64094;SDS011;50353;51.420;5.682;2023-02-28T04:34:12;18.00;;;6.45;;
64094;SDS011;50353;51.420;5.682;2023-02-28T04:36:38;11.60;;;6.55;;
64094;SDS011;50353;51.420;5.682;2023-02-28T04:39:03;10.82;;;6.65;;
64094;SDS011;50353;51.420;5.682;2023-02-28T04:41:29;10.23;;;6.18;;
64094;SDS011;50353;51.420;5.682;2023-02-28T04:43:54;9.95;;;5.78;;
64094;SDS011;50353;51.420;5.682;2023-02-28T04:46:21;10.45;;;5.68;;
64094;SDS011;50353;51.420;5.682;2023-02-28T04:48:47;11.57;;;5.43;;
64094;SDS011;50353;51.420;5.682;2023-02-28T04:51:13;11.15;;;5.35;;
64094;SDS011;50353;51.420;5.682;2023-02-28T04:53:40;10.25;;;5.78;;
64094;SDS011;50353;51.420;5.682;2023-02-28T04:56:06;12.82;;;5.65;;
64094;SDS011;50353;51.420;5.682;2023-02-28T04:58:33;8.95;;;5.20;;
64094;SDS011;50353;51.420;5.682;2023-02-28T05:01:05;10.32;;;5.50;;
64094;SDS011;50353;51.420;5.682;2023-02-28T05:03:37;9.98;;;5.88;;
64094;SDS011;50353;51.420;5.682;2023-02-28T05:06:06;8.75;;;5.57;;
64094;SDS011;50353;51.420;5.682;2023-02-28T05:08:32;12.20;;;5.03;;
64094;SDS011;50353;51.420;5.682;2023-02-28T05:10:58;12.35;;;5.70;;
64094;SDS011;50353;51.420;5.682;2023-02-28T05:13:25;11.98;;;5.32;;
64094;SDS011;50353;51.420;5.682;2023-02-28T05:15:51;12.13;;;5.32;;
64094;SDS011;50353;51.420;5.682;2023-02-28T05:18:16;10.77;;;5.30;;
64094;SDS011;50353;51.420;5.682;2023-02-28T05:20:41;9.52;;;5.03;;
64094;SDS011;50353;51.420;5.682;2023-02-28T05:23:07;10.65;;;5.22;;
64094;SDS011;50353;51.420;5.682;2023-02-28T05:25:36;8.23;;;5.20;;
64094;SDS011;50353;51.420;5.682;2023-02-28T05:28:01;18.75;;;5.78;;
64094;SDS011;50353;51.420;5.682;2023-02-28T05:30:26;10.50;;;4.22;;
64094;SDS011;50353;51.420;5.682;2023-02-28T05:32:51;15.77;;;5.20;;
64094;SDS011;50353;51.420;5.682;2023-02-28T05:35:17;10.75;;;4.97;;
64094;SDS011;50353;51.420;5.682;2023-02-28T05:37:42;12.02;;;4.97;;
64094;SDS011;50353;51.420;5.682;2023-02-28T05:40:08;11.82;;;5.53;;
64094;SDS011;50353;51.420;5.682;2023-02-28T05:42:36;15.77;;;5.43;;
64094;SDS011;50353;51.420;5.682;2023-02-28T05:45:03;12.80;;;5.03;;
64094;SDS011;50353;51.420;5.682;2023-02-28T05:47:29;9.23;;;5.22;;
64094;SDS011;50353;51.420;5.682;2023-02-28T05:49:54;8.93;;;4.80;;
64094;SDS011;50353;51.420;5.682;2023-02-28T05:52:20;12.85;;;5.55;;
64094;SDS011;50353;51.420;5.682;2023-02-28T05:54:46;13.50;;;5.05;;
64094;SDS011;50353;51.420;5.682;2023-02-28T05:57:12;10.48;;;5.45;;
64094;SDS011;50353;51.420;5.682;2023-02-28T05:59:37;12.90;;;5.88;;
64094;SDS011;50353;51.420;5.682;2023-02-28T06:04:30;13.73;;;5.18;;
64094;SDS011;50353;51.420;5.682;2023-02-28T06:06:55;10.15;;;5.28;;
64094;SDS011;50353;51.420;5.682;2023-02-28T06:09:22;11.27;;;5.32;;
64094;SDS011;50353;51.420;5.682;2023-02-28T06:11:47;11.27;;;5.50;;
64094;SDS011;50353;51.420;5.682;2023-02-28T06:14:16;9.75;;;4.60;;
64094;SDS011;50353;51.420;5.682;2023-02-28T06:16:43;9.75;;;5.38;;
64094;SDS011;50353;51.420;5.682;2023-02-28T06:19:09;11.82;;;5.88;;
64094;SDS011;50353;51.420;5.682;2023-02-28T06:21:35;11.80;;;5.47;;
64094;SDS011;50353;51.420;5.682;2023-02-28T06:24:01;12.68;;;5.50;;
64094;SDS011;50353;51.420;5.682;2023-02-28T06:26:27;12.07;;;5.63;;
64094;SDS011;50353;51.420;5.682;2023-02-28T06:28:53;15.50;;;5.50;;
64094;SDS011;50353;51.420;5.682;2023-02-28T06:31:18;12.00;;;5.00;;
64094;SDS011;50353;51.420;5.682;2023-02-28T06:33:44;16.52;;;5.40;;
64094;SDS011;50353;51.420;5.682;2023-02-28T06:36:11;13.55;;;6.75;;
64094;SDS011;50353;51.420;5.682;2023-02-28T06:38:38;8.82;;;5.28;;
64094;SDS011;50353;51.420;5.682;2023-02-28T06:41:03;12.75;;;5.40;;
64094;SDS011;50353;51.420;5.682;2023-02-28T06:43:30;12.10;;;5.40;;
64094;SDS011;50353;51.420;5.682;2023-02-28T06:45:58;10.30;;;4.90;;
64094;SDS011;50353;51.420;5.682;2023-02-28T06:48:26;20.73;;;9.73;;
64094;SDS011;50353;51.420;5.682;2023-02-28T06:51:00;13.48;;;5.53;;
64094;SDS011;50353;51.420;5.682;2023-02-28T06:53:27;13.80;;;6.05;;
64094;SDS011;50353;51.420;5.682;2023-02-28T06:55:52;11.35;;;5.57;;
64094;SDS011;50353;51.420;5.682;2023-02-28T06:58:17;8.45;;;4.60;;
64094;SDS011;50353;51.420;5.682;2023-02-28T07:00:44;16.13;;;8.18;;
64094;SDS011;50353;51.420;5.682;2023-02-28T07:03:10;10.37;;;4.93;;
64094;SDS011;50353;51.420;5.682;2023-02-28T07:05:37;15.93;;;5.22;;
64094;SDS011;50353;51.420;5.682;2023-02-28T07:08:04;10.25;;;4.65;;
64094;SDS011;50353;51.420;5.682;2023-02-28T07:10:30;8.35;;;4.50;;
64094;SDS011;50353;51.420;5.682;2023-02-28T07:12:56;9.25;;;4.97;;
64094;SDS011;50353;51.420;5.682;2023-02-28T07:15:21;9.07;;;4.45;;
64094;SDS011;50353;51.420;5.682;2023-02-28T07:17:47;8.70;;;4.50;;
64094;SDS011;50353;51.420;5.682;2023-02-28T07:20:12;10.68;;;4.93;;
64094;SDS011;50353;51.420;5.682;2023-02-28T07:22:38;8.82;;;4.43;;
64094;SDS011;50353;51.420;5.682;2023-02-28T07:25:04;11.23;;;4.90;;
64094;SDS011;50353;51.420;5.682;2023-02-28T07:27:30;9.50;;;4.50;;
64094;SDS011;50353;51.420;5.682;2023-02-28T07:29:55;11.70;;;4.90;;
64094;SDS011;50353;51.420;5.682;2023-02-28T07:32:21;9.80;;;4.35;;
64094;SDS011;50353;51.420;5.682;2023-02-28T07:34:46;12.30;;;4.40;;
64094;SDS011;50353;51.420;5.682;2023-02-28T07:37:11;8.88;;;4.20;;
64094;SDS011;50353;51.420;5.682;2023-02-28T07:39:37;9.82;;;4.57;;
64094;SDS011;50353;51.420;5.682;2023-02-28T07:42:05;12.57;;;5.25;;
64094;SDS011;50353;51.420;5.682;2023-02-28T07:44:34;7.97;;;4.63;;
64094;SDS011;50353;51.420;5.682;2023-02-28T07:47:00;8.40;;;4.40;;
64094;SDS011;50353;51.420;5.682;2023-02-28T07:49:25;8.95;;;4.90;;
64094;SDS011;50353;51.420;5.682;2023-02-28T07:51:51;10.10;;;4.10;;
64094;SDS011;50353;51.420;5.682;2023-02-28T07:54:16;8.32;;;4.57;;
64094;SDS011;50353;51.420;5.682;2023-02-28T07:56:41;7.18;;;3.97;;
64094;SDS011;50353;51.420;5.682;2023-02-28T07:59:06;7.72;;;4.15;;
64094;SDS011;50353;51.420;5.682;2023-02-28T08:01:32;12.38;;;4.13;;
64094;SDS011;50353;51.420;5.682;2023-02-28T08:03:57;10.68;;;4.40;;
64094;SDS011;50353;51.420;5.682;2023-02-28T08:06:23;11.00;;;4.60;;
64094;SDS011;50353;51.420;5.682;2023-02-28T08:08:49;11.37;;;4.07;;
64094;SDS011;50353;51.420;5.682;2023-02-28T08:11:14;9.38;;;4.68;;
64094;SDS011;50353;51.420;5.682;2023-02-28T08:13:41;10.00;;;4.32;;
64094;SDS011;50353;51.420;5.682;2023-02-28T08:16:08;8.73;;;4.15;;
64094;SDS011;50353;51.420;5.682;2023-02-28T08:18:34;8.13;;;4.10;;
64094;SDS011;50353;51.420;5.682;2023-02-28T08:20:59;8.93;;;3.90;;
64094;SDS011;50353;51.420;5.682;2023-02-28T08:23:31;10.00;;;3.95;;
64094;SDS011;50353;51.420;5.682;2023-02-28T08:25:58;9.00;;;4.20;;
64094;SDS011;50353;51.420;5.682;2023-02-28T08:28:23;9.85;;;3.90;;
64094;SDS011;50353;51.420;5.682;2023-02-28T08:30:49;8.93;;;4.15;;
64094;SDS011;50353;51.420;5.682;2023-02-28T08:33:14;9.77;;;3.58;;
64094;SDS011;50353;51.420;5.682;2023-02-28T08:35:39;7.25;;;3.10;;
64094;SDS011;50353;51.420;5.682;2023-02-28T08:38:05;7.07;;;3.28;;
64094;SDS011;50353;51.420;5.682;2023-02-28T08:40:30;6.07;;;3.65;;
64094;SDS011;50353;51.420;5.682;2023-02-28T08:42:56;6.50;;;3.17;;
64094;SDS011;50353;51.420;5.682;2023-02-28T08:45:21;7.63;;;3.65;;
64094;SDS011;50353;51.420;5.682;2023-02-28T08:47:46;9.65;;;4.32;;
64094;SDS011;50353;51.420;5.682;2023-02-28T08:50:11;7.45;;;3.30;;
64094;SDS011;50353;51.420;5.682;2023-02-28T08:52:41;6.68;;;3.40;;
64094;SDS011;50353;51.420;5.682;2023-02-28T08:55:07;6.20;;;3.35;;
64094;SDS011;50353;51.420;5.682;2023-02-28T08:57:34;6.50;;;3.15;;
64094;SDS011;50353;51.420;5.682;2023-02-28T08:59:59;8.13;;;3.28;;
64094;SDS011;50353;51.420;5.682;2023-02-28T09:02:26;9.45;;;3.50;;
64094;SDS011;50353;51.420;5.682;2023-02-28T09:04:52;7.30;;;2.70;;
64094;SDS011;50353;51.420;5.682;2023-02-28T09:07:17;5.22;;;2.40;;
64094;SDS011;50353;51.420;5.682;2023-02-28T09:09:42;4.63;;;2.70;;
64094;SDS011;50353;51.420;5.682;2023-02-28T09:12:19;4.53;;;2.83;;
64094;SDS011;50353;51.420;5.682;2023-02-28T09:14:47;4.25;;;2.45;;
64094;SDS011;50353;51.420;5.682;2023-02-28T09:17:13;4.20;;;2.50;;
64094;SDS011;50353;51.420;5.682;2023-02-28T09:19:38;5.78;;;3.20;;
64094;SDS011;50353;51.420;5.682;2023-02-28T09:22:03;7.10;;;3.05;;
64094;SDS011;50353;51.420;5.682;2023-02-28T09:24:28;4.68;;;2.78;;
64094;SDS011;50353;51.420;5.682;2023-02-28T09:26:56;8.65;;;2.80;;
64094;SDS011;50353;51.420;5.682;2023-02-28T09:29:21;5.65;;;3.05;;
64094;SDS011;50353;51.420;5.682;2023-02-28T09:31:47;5.68;;;2.63;;
64094;SDS011;50353;51.420;5.682;2023-02-28T09:34:12;6.38;;;2.85;;
64094;SDS011;50353;51.420;5.682;2023-02-28T09:36:37;6.00;;;2.53;;
64094;SDS011;50353;51.420;5.682;2023-02-28T09:39:03;6.93;;;3.00;;
64094;SDS011;50353;51.420;5.682;2023-02-28T09:41:29;5.20;;;2.70;;
64094;SDS011;50353;51.420;5.682;2023-02-28T09:44:04;4.30;;;2.55;;
64094;SDS011;50353;51.420;5.682;2023-02-28T09:46:42;5.55;;;2.50;;
64094;SDS011;50353;51.420;5.682;2023-02-28T09:49:12;4.47;;;2.40;;
64094;SDS011;50353;51.420;5.682;2023-02-28T09:51:55;5.18;;;2.72;;
64094;SDS011;50353;51.420;5.682;2023-02-28T09:54:24;4.13;;;2.50;;
64094;SDS011;50353;51.420;5.682;2023-02-28T10:00:03;3.80;;;2.25;;
64094;SDS011;50353;51.420;5.682;2023-02-28T10:05:19;6.47;;;2.38;;
64094;SDS011;50353;51.420;5.682;2023-02-28T10:07:54;4.13;;;2.50;;
64094;SDS011;50353;51.420;5.682;2023-02-28T10:10:32;5.18;;;2.78;;
64094;SDS011;50353;51.420;5.682;2023-02-28T10:13:04;7.32;;;3.00;;
64094;SDS011;50353;51.420;5.682;2023-02-28T10:15:37;4.32;;;2.28;;
64094;SDS011;50353;51.420;5.682;2023-02-28T10:18:04;4.80;;;2.70;;
64094;SDS011;50353;51.420;5.682;2023-02-28T10:20:35;7.65;;;2.85;;
64094;SDS011;50353;51.420;5.682;2023-02-28T10:23:09;4.20;;;2.53;;
64094;SDS011;50353;51.420;5.682;2023-02-28T10:25:36;6.68;;;2.45;;
64094;SDS011;50353;51.420;5.682;2023-02-28T10:28:12;5.15;;;2.50;;
64094;SDS011;50353;51.420;5.682;2023-02-28T10:30:50;5.28;;;2.40;;
64094;SDS011;50353;51.420;5.682;2023-02-28T10:33:24;6.30;;;2.60;;
64094;SDS011;50353;51.420;5.682;2023-02-28T10:35:53;5.07;;;2.40;;
64094;SDS011;50353;51.420;5.682;2023-02-28T10:38:26;4.25;;;2.28;;
64094;SDS011;50353;51.420;5.682;2023-02-28T10:41:03;8.20;;;2.50;;
64094;SDS011;50353;51.420;5.682;2023-02-28T10:43:31;5.43;;;2.55;;
64094;SDS011;50353;51.420;5.682;2023-02-28T10:46:02;6.10;;;2.40;;
64094;SDS011;50353;51.420;5.682;2023-02-28T10:48:38;4.18;;;2.42;;
64094;SDS011;50353;51.420;5.682;2023-02-28T10:51:06;4.63;;;2.50;;
64094;SDS011;50353;51.420;5.682;2023-02-28T10:53:35;8.98;;;2.88;;
64094;SDS011;50353;51.420;5.682;2023-02-28T10:56:14;5.53;;;2.60;;
64094;SDS011;50353;51.420;5.682;2023-02-28T11:03:54;5.78;;;2.55;;
64094;SDS011;50353;51.420;5.682;2023-02-28T11:06:21;5.90;;;2.63;;
64094;SDS011;50353;51.420;5.682;2023-02-28T11:08:49;4.97;;;2.65;;
64094;SDS011;50353;51.420;5.682;2023-02-28T11:11:18;5.38;;;2.70;;
64094;SDS011;50353;51.420;5.682;2023-02-28T11:13:45;6.80;;;3.00;;
64094;SDS011;50353;51.420;5.682;2023-02-28T11:16:14;10.43;;;3.03;;
64094;SDS011;50353;51.420;5.682;2023-02-28T11:18:42;7.90;;;2.85;;
64094;SDS011;50353;51.420;5.682;2023-02-28T11:24:26;5.78;;;2.70;;
64094;SDS011;50353;51.420;5.682;2023-02-28T11:26:54;5.63;;;2.72;;
64094;SDS011;50353;51.420;5.682;2023-02-28T11:32:03;5.60;;;2.60;;
64094;SDS011;50353;51.420;5.682;2023-02-28T11:34:35;8.23;;;2.90;;
64094;SDS011;50353;51.420;5.682;2023-02-28T11:37:02;9.02;;;2.83;;
64094;SDS011;50353;51.420;5.682;2023-02-28T11:39:30;5.13;;;2.58;;
64094;SDS011;50353;51.420;5.682;2023-02-28T11:44:28;5.80;;;2.80;;
64094;SDS011;50353;51.420;5.682;2023-02-28T11:55:59;5.93;;;2.83;;
64094;SDS011;50353;51.420;5.682;2023-02-28T12:04:14;5.25;;;3.08;;
64094;SDS011;50353;51.420;5.682;2023-02-28T12:06:50;5.72;;;3.45;;
64094;SDS011;50353;51.420;5.682;2023-02-28T12:09:46;6.63;;;3.25;;
64094;SDS011;50353;51.420;5.682;2023-02-28T12:12:34;5.55;;;3.15;;
64094;SDS011;50353;51.420;5.682;2023-02-28T12:31:46;4.38;;;2.55;;
64094;SDS011;50353;51.420;5.682;2023-02-28T12:34:18;6.50;;;2.83;;
64094;SDS011;50353;51.420;5.682;2023-02-28T12:36:47;7.13;;;3.10;;
64094;SDS011;50353;51.420;5.682;2023-02-28T12:39:20;7.78;;;3.30;;
64094;SDS011;50353;51.420;5.682;2023-02-28T12:47:10;4.88;;;3.03;;
64094;SDS011;50353;51.420;5.682;2023-02-28T12:49:42;5.55;;;2.50;;
64094;SDS011;50353;51.420;5.682;2023-02-28T12:52:14;4.72;;;2.85;;
64094;SDS011;50353;51.420;5.682;2023-02-28T12:59:56;6.78;;;3.17;;
64094;SDS011;50353;51.420;5.682;2023-02-28T13:10:43;5.70;;;3.00;;
64094;SDS011;50353;51.420;5.682;2023-02-28T13:13:14;5.43;;;3.10;;
64094;SDS011;50353;51.420;5.682;2023-02-28T13:15:42;6.30;;;3.45;;
64094;SDS011;50353;51.420;5.682;2023-02-28T13:18:33;11.10;;;2.90;;
64094;SDS011;50353;51.420;5.682;2023-02-28T13:21:02;5.20;;;2.97;;
64094;SDS011;50353;51.420;5.682;2023-02-28T13:26:17;5.20;;;2.88;;
64094;SDS011;50353;51.420;5.682;2023-02-28T13:31:14;6.57;;;3.08;;
64094;SDS011;50353;51.420;5.682;2023-02-28T13:34:22;6.03;;;3.30;;
64094;SDS011;50353;51.420;5.682;2023-02-28T13:36:38;26.88;;;8.73;;
64094;SDS011;50353;51.420;5.682;2023-02-28T13:39:45;7.05;;;3.50;;
64094;SDS011;50353;51.420;5.682;2023-02-28T13:47:30;6.87;;;3.77;;
64094;SDS011;50353;51.420;5.682;2023-02-28T13:50:14;5.15;;;3.17;;
64094;SDS011;50353;51.420;5.682;2023-02-28T13:52:48;5.47;;;3.30;;
64094;SDS011;50353;51.420;5.682;2023-02-28T14:06:37;5.68;;;3.40;;
64094;SDS011;50353;51.420;5.682;2023-02-28T14:11:37;10.13;;;3.47;;
64094;SDS011;50353;51.420;5.682;2023-02-28T14:14:05;4.80;;;3.38;;
64094;SDS011;50353;51.420;5.682;2023-02-28T14:16:39;6.28;;;3.45;;
64094;SDS011;50353;51.420;5.682;2023-02-28T14:19:13;5.50;;;3.43;;
64094;SDS011;50353;51.420;5.682;2023-02-28T14:21:50;6.50;;;3.25;;
64094;SDS011;50353;51.420;5.682;2023-02-28T14:32:17;7.95;;;3.53;;
64094;SDS011;50353;51.420;5.682;2023-02-28T14:34:50;5.60;;;3.40;;
64094;SDS011;50353;51.420;5.682;2023-02-28T14:37:23;5.28;;;3.53;;
64094;SDS011;50353;51.420;5.682;2023-02-28T14:39:53;5.50;;;3.50;;
64094;SDS011;50353;51.420;5.682;2023-02-28T14:42:39;7.20;;;3.33;;
64094;SDS011;50353;51.420;5.682;2023-02-28T14:45:18;4.78;;;2.97;;
64094;SDS011;50353;51.420;5.682;2023-02-28T14:47:45;6.53;;;3.40;;
64094;SDS011;50353;51.420;5.682;2023-02-28T14:50:18;4.90;;;3.03;;
64094;SDS011;50353;51.420;5.682;2023-02-28T14:52:45;6.90;;;3.22;;
64094;SDS011;50353;51.420;5.682;2023-02-28T14:55:15;5.93;;;3.53;;
64094;SDS011;50353;51.420;5.682;2023-02-28T14:57:56;5.93;;;3.30;;
64094;SDS011;50353;51.420;5.682;2023-02-28T15:00:32;5.70;;;3.58;;
64094;SDS011;50353;51.420;5.682;2023-02-28T15:03:11;5.93;;;3.53;;
64094;SDS011;50353;51.420;5.682;2023-02-28T15:05:47;5.70;;;3.30;;
64094;SDS011;50353;51.420;5.682;2023-02-28T15:08:20;6.68;;;3.05;;
64094;SDS011;50353;51.420;5.682;2023-02-28T15:11:07;6.03;;;3.85;;
64094;SDS011;50353;51.420;5.682;2023-02-28T15:13:44;6.25;;;3.40;;
64094;SDS011;50353;51.420;5.682;2023-02-28T15:16:16;9.10;;;3.22;;
64094;SDS011;50353;51.420;5.682;2023-02-28T15:18:56;5.97;;;3.47;;
64094;SDS011;50353;51.420;5.682;2023-02-28T15:21:23;6.13;;;3.40;;
64094;SDS011;50353;51.420;5.682;2023-02-28T15:23:52;5.70;;;3.33;;
64094;SDS011;50353;51.420;5.682;2023-02-28T15:28:59;5.20;;;3.15;;
64094;SDS011;50353;51.420;5.682;2023-02-28T15:31:44;6.45;;;3.40;;
64094;SDS011;50353;51.420;5.682;2023-02-28T15:34:35;6.82;;;3.47;;
64094;SDS011;50353;51.420;5.682;2023-02-28T15:37:01;6.80;;;3.42;;
64094;SDS011;50353;51.420;5.682;2023-02-28T15:39:31;7.78;;;3.20;;
64094;SDS011;50353;51.420;5.682;2023-02-28T15:42:09;5.72;;;3.10;;
64094;SDS011;50353;51.420;5.682;2023-02-28T15:44:36;9.07;;;3.40;;
64094;SDS011;50353;51.420;5.682;2023-02-28T15:47:06;5.35;;;3.17;;
64094;SDS011;50353;51.420;5.682;2023-02-28T15:49:52;5.03;;;3.17;;
64094;SDS011;50353;51.420;5.682;2023-02-28T15:54:59;4.70;;;3.10;;
64094;SDS011;50353;51.420;5.682;2023-02-28T15:57:33;7.82;;;3.63;;
64094;SDS011;50353;51.420;5.682;2023-02-28T16:00:02;6.30;;;3.40;;
64094;SDS011;50353;51.420;5.682;2023-02-28T16:02:32;8.52;;;3.17;;
64094;SDS011;50353;51.420;5.682;2023-02-28T16:05:13;6.47;;;3.42;;
64094;SDS011;50353;51.420;5.682;2023-02-28T16:07:46;4.82;;;3.10;;
64094;SDS011;50353;51.420;5.682;2023-02-28T16:10:13;5.90;;;3.75;;
64094;SDS011;50353;51.420;5.682;2023-02-28T16:12:39;6.72;;;3.60;;
64094;SDS011;50353;51.420;5.682;2023-02-28T16:15:07;6.03;;;3.85;;
64094;SDS011;50353;51.420;5.682;2023-02-28T16:17:40;11.27;;;3.88;;
64094;SDS011;50353;51.420;5.682;2023-02-28T16:20:11;8.32;;;4.38;;
64094;SDS011;50353;51.420;5.682;2023-02-28T16:22:41;5.20;;;3.17;;
64094;SDS011;50353;51.420;5.682;2023-02-28T16:25:08;6.63;;;3.20;;
64094;SDS011;50353;51.420;5.682;2023-02-28T16:27:37;6.32;;;3.67;;
64094;SDS011;50353;51.420;5.682;2023-02-28T16:30:03;7.60;;;3.70;;
64094;SDS011;50353;51.420;5.682;2023-02-28T16:34:56;6.97;;;3.33;;
64094;SDS011;50353;51.420;5.682;2023-02-28T16:37:22;10.77;;;5.50;;
64094;SDS011;50353;51.420;5.682;2023-02-28T16:39:47;5.10;;;3.42;;
64094;SDS011;50353;51.420;5.682;2023-02-28T16:42:21;6.68;;;3.58;;
64094;SDS011;50353;51.420;5.682;2023-02-28T16:44:50;8.30;;;4.10;;
64094;SDS011;50353;51.420;5.682;2023-02-28T16:47:16;5.18;;;3.20;;
64094;SDS011;50353;51.420;5.682;2023-02-28T16:49:42;6.72;;;3.33;;
64094;SDS011;50353;51.420;5.682;2023-02-28T16:52:08;8.88;;;3.67;;
64094;SDS011;50353;51.420;5.682;2023-02-28T16:54:34;7.05;;;3.60;;
64094;SDS011;50353;51.420;5.682;2023-02-28T16:57:00;7.35;;;3.47;;
64094;SDS011;50353;51.420;5.682;2023-02-28T16:59:26;8.50;;;3.60;;
64094;SDS011;50353;51.420;5.682;2023-02-28T17:01:54;7.90;;;3.70;;
64094;SDS011;50353;51.420;5.682;2023-02-28T17:04:20;7.75;;;3.72;;
64094;SDS011;50353;51.420;5.682;2023-02-28T17:06:46;8.25;;;3.47;;
64094;SDS011;50353;51.420;5.682;2023-02-28T17:09:14;7.18;;;3.58;;
64094;SDS011;50353;51.420;5.682;2023-02-28T17:11:41;7.88;;;4.50;;